Fredericia, Denmark
Current Conditions -  °F | °C
As of 11:50 PM on Thursday 27 Nov 2014 (Local Time) from EKBI Reporting Station
Clear Clear  
Wind Chill: 28°   Ceiling: Unl
Heat Index: 37°   Visibility: 6mi
Dew Point: 32°   Wind: 16mph
Humidity: 81%   Direction: 110°ESE
Pressure: 30.03"   Gusts: NA
Location:  55.57°N, 9.75°E
Report Text: EKBI 272250Z AUTO 11014KT 9999NDV NCD 03/M00 Q1017
Loading
Personal Weather Stations






























Interactive Weather Map New forecast layout! Learn more

10-Day Weather Forecast

Advertisements
Track Severe Weather on mobile